KETN

Details ICAO KETN
Name EASTLAND MUNI
Region United States
Timezone America/Chicago (UTC-5.0)
Plans Departing 2
Arriving 3
Stats Elevation 1,464 ft / 446 m (AMSL)
Location 32.413543° -98.809750°
Runways 1
Magnetic Variation 4.420° E
Sunrise 2018-05-25 11:32:53 UTC / 2018-05-25 06:32:53 Local
Sunset 2018-05-26 01:34:23 UTC / 2018-05-25 20:34:23 Local
Advertisement - Login to hide

Runways

ID Width Length Bearing (true) Bearing (mag) Surface Threshold Offset Overrun Length
17 60 ft / 18 m 4,031 ft / 1,229 m 181.82° 177.40° Asphalt 0 ft / 0 m 0 ft / 0 m
35 60 ft / 18 m 4,031 ft / 1,229 m 1.82° 357.40° Asphalt 0 ft / 0 m 0 ft / 0 m

Map

Weather


0- 5 10 15 20 25 30 35+ Temperature / ° C

Clouds and Precipitation
Forecast for 2018-05-25 12:00 UTC. Updated 2 hours ago

Ground ~20,000 ft ~40,000 ft Winds

METAR

KETN 251335Z AUTO 21009KT 10SM CLR 24/20 A2999 RMK AO2 T02450202

TAF

Not found

Frequencies

Unicom 122.80 MHz CTAF/UNICOM
Approach 127.15 MHz FORT WORTH CNTR
Warning: Do not use this data for real-world aviation or navigation. No guarantee of current accuracy is given.